createdAt,value
2023-05-09T00:01:49.328Z,15.40
2023-05-09T00:04:43.669Z,15.50
2023-05-09T00:07:37.990Z,15.60
2023-05-09T00:10:32.271Z,15.70
2023-05-09T00:13:27.071Z,15.80
2023-05-09T00:16:21.850Z,15.90
2023-05-09T00:19:16.089Z,15.90
2023-05-09T00:22:10.564Z,16.00
2023-05-09T00:25:05.585Z,16.00
2023-05-09T00:27:59.920Z,16.00
2023-05-09T00:30:54.106Z,16.10
2023-05-09T00:33:48.543Z,16.10
2023-05-09T00:36:43.338Z,16.10
2023-05-09T00:39:37.892Z,16.10
2023-05-09T00:42:32.328Z,16.20
2023-05-09T00:45:27.050Z,16.30
2023-05-09T00:48:21.453Z,16.40
2023-05-09T00:51:15.882Z,16.50
2023-05-09T00:54:11.382Z,16.50
2023-05-09T00:57:05.694Z,16.60
2023-05-09T00:59:59.950Z,16.60
2023-05-09T01:02:57.253Z,16.70
2023-05-09T01:06:04.611Z,16.70
2023-05-09T01:09:29.209Z,16.80
2023-05-09T01:12:41.894Z,16.90
2023-05-09T01:15:43.064Z,16.90
2023-05-09T01:19:01.941Z,16.90
2023-05-09T01:21:58.479Z,17.00
2023-05-09T01:25:29.630Z,17.00
2023-05-09T01:28:40.656Z,17.10
2023-05-09T01:31:39.901Z,17.10
2023-05-09T01:34:36.320Z,17.10
2023-05-09T01:37:39.480Z,17.20
2023-05-09T01:40:34.966Z,17.20
2023-05-09T01:43:31.806Z,17.30
2023-05-09T01:46:29.086Z,17.40
2023-05-09T01:49:23.863Z,17.40
2023-05-09T01:52:20.583Z,17.50
2023-05-09T01:55:16.324Z,17.60
2023-05-09T01:58:11.386Z,17.70
2023-05-09T02:01:06.234Z,17.70
2023-05-09T02:04:01.546Z,17.70
2023-05-09T02:06:55.958Z,17.80
2023-05-09T02:09:51.666Z,17.80
2023-05-09T02:12:46.030Z,17.80
2023-05-09T02:15:40.510Z,17.80
2023-05-09T02:18:35.367Z,17.80
2023-05-09T02:21:29.744Z,17.80
2023-05-09T02:24:23.998Z,17.90
2023-05-09T02:27:18.668Z,18.00
2023-05-09T02:30:24.494Z,18.00
2023-05-09T02:33:19.624Z,18.10
2023-05-09T02:36:14.627Z,18.20
2023-05-09T02:39:09.078Z,18.20
2023-05-09T02:42:11.955Z,18.20
2023-05-09T02:45:10.417Z,18.30
2023-05-09T02:48:06.888Z,18.30
2023-05-09T02:51:02.577Z,18.40
2023-05-09T02:53:57.022Z,18.40
2023-05-09T02:56:51.198Z,18.50
2023-05-09T02:59:45.439Z,18.50
2023-05-09T03:02:40.210Z,18.60
2023-05-09T03:05:34.380Z,18.50
2023-05-09T03:08:28.598Z,18.50
2023-05-09T03:11:23.145Z,18.40
2023-05-09T03:14:17.358Z,18.50
2023-05-09T03:17:11.875Z,18.40
2023-05-09T03:20:07.014Z,18.40
2023-05-09T03:23:01.143Z,18.40
2023-05-09T03:25:55.381Z,18.50
2023-05-09T03:28:50.176Z,18.50
2023-05-09T03:31:44.434Z,18.50
2023-05-09T03:34:38.578Z,18.50
2023-05-09T03:37:32.710Z,18.60
2023-05-09T03:40:26.902Z,18.60
2023-05-09T03:43:21.262Z,18.60
2023-05-09T03:46:15.406Z,18.70
2023-05-09T03:49:09.619Z,18.80
2023-05-09T03:52:04.673Z,18.80
2023-05-09T03:54:58.831Z,18.80
2023-05-09T03:57:53.156Z,18.90
2023-05-09T04:00:47.591Z,19.00
2023-05-09T04:03:42.506Z,19.00
2023-05-09T04:06:37.346Z,19.00
2023-05-09T04:09:32.514Z,19.00
2023-05-09T04:12:27.397Z,19.00
2023-05-09T04:15:21.491Z,19.10
2023-05-09T04:18:15.724Z,19.10
2023-05-09T04:21:10.112Z,19.10
2023-05-09T04:24:04.395Z,19.00
2023-05-09T04:26:59.203Z,18.90
2023-05-09T04:29:54.730Z,18.90
2023-05-09T04:32:50.175Z,18.90
2023-05-09T04:35:44.413Z,19.00
2023-05-09T04:38:38.598Z,19.00
2023-05-09T04:41:33.090Z,19.10
2023-05-09T04:44:27.978Z,19.00
2023-05-09T04:47:22.287Z,19.10
2023-05-09T04:50:17.703Z,19.10
2023-05-09T04:53:12.267Z,19.10
2023-05-09T04:56:06.550Z,19.10
2023-05-09T04:59:00.779Z,19.10
2023-05-09T05:01:55.126Z,19.10
2023-05-09T05:04:49.905Z,19.10
2023-05-09T05:07:44.145Z,19.10
2023-05-09T05:10:38.343Z,19.00
2023-05-09T05:13:32.553Z,19.00
2023-05-09T05:16:26.867Z,19.10
2023-05-09T05:19:21.164Z,19.10
2023-05-09T05:22:15.351Z,19.20
2023-05-09T05:25:10.108Z,19.20
2023-05-09T05:28:04.560Z,19.20
2023-05-09T05:30:58.721Z,19.20
2023-05-09T05:33:53.044Z,19.30
2023-05-09T05:36:47.688Z,19.30
2023-05-09T05:39:41.858Z,19.40
2023-05-09T05:42:36.199Z,19.50
2023-05-09T05:45:31.530Z,19.50
2023-05-09T05:48:25.710Z,19.60
2023-05-09T05:51:20.112Z,19.50
2023-05-09T05:54:14.269Z,19.60
2023-05-09T05:57:09.444Z,19.60
2023-05-09T06:00:06.943Z,19.60
2023-05-09T06:03:01.306Z,19.70
2023-05-09T06:05:55.553Z,19.70
2023-05-09T06:08:52.865Z,19.80
2023-05-09T06:11:46.593Z,19.70
2023-05-09T06:14:40.759Z,19.80
2023-05-09T06:17:35.813Z,19.80
2023-05-09T06:20:30.097Z,19.80
2023-05-09T06:23:24.416Z,19.80
2023-05-09T06:26:18.815Z,19.80
2023-05-09T06:29:13.026Z,19.80
2023-05-09T06:32:07.427Z,19.80
2023-05-09T06:35:01.645Z,19.80
2023-05-09T06:37:57.356Z,19.70
2023-05-09T06:40:51.599Z,19.70
2023-05-09T06:43:45.856Z,19.80
2023-05-09T06:46:40.056Z,19.70
2023-05-09T06:49:34.336Z,19.70
2023-05-09T06:52:28.505Z,19.70
2023-05-09T06:55:22.935Z,19.70
2023-05-09T06:58:17.189Z,19.70
2023-05-09T07:01:11.524Z,19.70
2023-05-09T07:04:05.771Z,19.70
2023-05-09T07:07:01.688Z,19.70
2023-05-09T07:10:07.321Z,19.70
2023-05-09T07:13:05.224Z,19.70
2023-05-09T07:15:59.501Z,19.60
2023-05-09T07:18:53.722Z,19.60
2023-05-09T07:21:47.920Z,19.60
2023-05-09T07:24:42.186Z,19.50
2023-05-09T07:27:36.855Z,19.50
2023-05-09T07:30:30.996Z,19.50
2023-05-09T07:33:25.411Z,19.50
2023-05-09T07:36:19.689Z,19.50
2023-05-09T07:39:13.895Z,19.50
2023-05-09T07:42:09.588Z,19.40
2023-05-09T07:45:05.667Z,19.40
2023-05-09T07:47:59.971Z,19.40
2023-05-09T07:50:54.277Z,19.30
2023-05-09T07:53:48.455Z,19.30
2023-05-09T07:56:42.594Z,19.30
2023-05-09T07:59:37.022Z,19.20
2023-05-09T08:02:31.323Z,19.10
2023-05-09T08:05:25.546Z,19.10
2023-05-09T08:08:19.748Z,19.10
2023-05-09T08:11:13.978Z,19.10
2023-05-09T08:14:08.090Z,19.00
2023-05-09T08:17:02.480Z,19.00
2023-05-09T08:19:56.747Z,18.90
2023-05-09T08:22:50.933Z,18.90
2023-05-09T08:25:45.168Z,18.90
2023-05-09T08:28:39.435Z,18.80
2023-05-09T08:31:33.656Z,18.80
2023-05-09T08:34:28.316Z,18.80
2023-05-09T08:37:22.458Z,18.80
2023-05-09T08:40:17.641Z,18.70
2023-05-09T08:43:13.381Z,18.60
2023-05-09T08:46:13.439Z,18.50
2023-05-09T08:49:09.637Z,18.60
2023-05-09T08:52:04.224Z,18.50
2023-05-09T08:54:59.075Z,18.50
2023-05-09T08:57:54.639Z,18.50
2023-05-09T09:00:51.716Z,18.50
2023-05-09T09:03:49.015Z,18.40
2023-05-09T09:06:43.447Z,18.40
2023-05-09T09:09:38.926Z,18.30
2023-05-09T09:12:34.673Z,18.30
2023-05-09T09:15:32.157Z,18.30
2023-05-09T09:18:31.991Z,18.40
2023-05-09T09:21:26.335Z,18.40
2023-05-09T09:24:24.822Z,18.40
2023-05-09T09:27:20.110Z,18.40
2023-05-09T09:30:15.122Z,18.50
2023-05-09T09:33:09.700Z,18.50
2023-05-09T09:36:04.023Z,18.50
2023-05-09T09:39:02.656Z,18.40
2023-05-09T09:41:57.077Z,18.40
2023-05-09T09:45:11.043Z,18.40
2023-05-09T09:48:08.895Z,18.30
2023-05-09T09:51:13.151Z,18.30
2023-05-09T09:54:10.304Z,18.30
2023-05-09T09:57:04.609Z,18.20
2023-05-09T10:00:02.084Z,18.30
2023-05-09T10:03:00.805Z,18.30
2023-05-09T10:06:04.253Z,18.30
2023-05-09T10:08:58.669Z,18.20
2023-05-09T10:11:54.656Z,18.10
2023-05-09T10:14:50.312Z,18.10
2023-05-09T10:17:45.101Z,18.20
2023-05-09T10:20:42.568Z,18.20
2023-05-09T10:23:38.795Z,18.20
2023-05-09T10:26:38.629Z,18.30
2023-05-09T10:29:40.479Z,18.30
2023-05-09T10:32:57.692Z,18.30
2023-05-09T10:35:53.714Z,18.30
2023-05-09T10:38:50.313Z,18.30
2023-05-09T10:41:44.915Z,18.10
2023-05-09T10:44:40.557Z,18.10
2023-05-09T10:47:35.121Z,18.00
2023-05-09T10:50:30.100Z,17.90
2023-05-09T10:53:25.621Z,17.80
2023-05-09T10:56:41.169Z,17.70
2023-05-09T10:59:41.290Z,17.80
2023-05-09T11:02:36.216Z,17.80
2023-05-09T11:05:41.897Z,17.80
2023-05-09T11:08:36.353Z,17.80
2023-05-09T11:11:31.887Z,17.80
2023-05-09T11:14:45.685Z,17.80
2023-05-09T11:17:43.595Z,17.80
2023-05-09T11:20:44.590Z,17.80
2023-05-09T11:23:40.644Z,17.70
2023-05-09T11:26:36.110Z,17.70
2023-05-09T11:29:30.521Z,17.70
2023-05-09T11:32:35.489Z,17.60
2023-05-09T11:35:29.963Z,17.60
2023-05-09T11:38:24.443Z,17.50
2023-05-09T11:41:18.817Z,17.50
2023-05-09T11:44:20.592Z,17.50
2023-05-09T11:47:15.373Z,17.40
2023-05-09T11:50:11.518Z,17.40
2023-05-09T11:53:05.672Z,17.40
2023-05-09T11:55:59.998Z,17.30
2023-05-09T11:58:54.432Z,17.30
2023-05-09T12:01:49.385Z,17.20
2023-05-09T12:04:43.635Z,17.30
2023-05-09T12:07:39.292Z,17.20
2023-05-09T12:10:33.978Z,17.20
2023-05-09T12:13:28.548Z,17.20
2023-05-09T12:16:23.182Z,17.20
2023-05-09T12:19:20.923Z,17.20
2023-05-09T12:22:15.056Z,17.20
2023-05-09T12:25:11.551Z,17.20
2023-05-09T12:28:06.025Z,17.20
2023-05-09T12:31:01.071Z,17.20
2023-05-09T12:33:55.467Z,17.20
2023-05-09T12:36:53.211Z,17.20
2023-05-09T12:40:02.020Z,17.30
2023-05-09T12:43:02.151Z,17.30
2023-05-09T12:45:56.347Z,17.30
2023-05-09T12:48:50.790Z,17.20
2023-05-09T12:51:51.583Z,17.20
2023-05-09T12:54:49.470Z,17.20
2023-05-09T12:57:44.186Z,17.20
2023-05-09T13:00:47.870Z,17.20
2023-05-09T13:03:42.305Z,17.20
2023-05-09T13:06:37.297Z,17.20
2023-05-09T13:09:31.500Z,17.20
2023-05-09T13:12:25.663Z,17.20
2023-05-09T13:15:22.978Z,17.20
2023-05-09T13:18:17.389Z,17.20
2023-05-09T13:21:11.565Z,17.10
2023-05-09T13:24:06.838Z,17.10
2023-05-09T13:27:01.051Z,17.10
2023-05-09T13:29:55.530Z,17.10
2023-05-09T13:32:49.851Z,17.20
2023-05-09T13:35:44.107Z,17.10
2023-05-09T13:38:41.684Z,17.10
2023-05-09T13:41:37.506Z,17.10
2023-05-09T13:44:32.419Z,17.20
2023-05-09T13:47:27.138Z,17.10
2023-05-09T13:50:21.556Z,17.10
2023-05-09T13:53:15.725Z,17.20
2023-05-09T13:56:13.237Z,17.20
2023-05-09T13:59:08.973Z,17.20
2023-05-09T14:02:03.755Z,17.20
2023-05-09T14:04:58.075Z,17.20
2023-05-09T14:07:52.334Z,17.20
2023-05-09T14:10:46.631Z,17.20
2023-05-09T14:13:40.849Z,17.20
2023-05-09T14:16:35.130Z,17.20
2023-05-09T14:19:30.003Z,17.20
2023-05-09T14:22:24.200Z,17.20
2023-05-09T14:25:18.451Z,17.10
2023-05-09T14:28:13.360Z,17.20
2023-05-09T14:31:07.682Z,17.20
2023-05-09T14:34:02.022Z,17.10
2023-05-09T14:36:56.119Z,17.10
2023-05-09T14:39:50.876Z,17.10
2023-05-09T14:42:45.509Z,17.00
2023-05-09T14:45:39.881Z,17.00
2023-05-09T14:48:37.968Z,17.00
2023-05-09T14:51:34.505Z,17.00
2023-05-09T14:54:28.828Z,17.00
2023-05-09T14:57:23.475Z,17.10
2023-05-09T15:00:21.845Z,17.00
2023-05-09T15:03:16.818Z,17.00
2023-05-09T15:06:11.742Z,17.00
2023-05-09T15:09:06.706Z,17.00
2023-05-09T15:12:00.859Z,17.00
2023-05-09T15:14:56.610Z,17.00
2023-05-09T15:17:51.190Z,17.00
2023-05-09T15:20:45.745Z,17.00
2023-05-09T15:23:40.902Z,17.00
2023-05-09T15:26:35.092Z,17.00
2023-05-09T15:29:29.269Z,17.00
2023-05-09T15:32:23.764Z,16.90
2023-05-09T15:35:19.520Z,16.90
2023-05-09T15:38:14.703Z,16.90
2023-05-09T15:41:10.041Z,16.80
2023-05-09T15:44:04.321Z,16.80
2023-05-09T15:46:59.686Z,16.80
2023-05-09T15:49:54.595Z,16.80
2023-05-09T15:52:48.988Z,16.70
2023-05-09T15:55:44.858Z,16.60
2023-05-09T15:58:40.042Z,16.60
2023-05-09T16:01:35.408Z,16.50
2023-05-09T16:04:29.694Z,16.50
2023-05-09T16:07:24.704Z,16.40
2023-05-09T16:10:18.943Z,16.40
2023-05-09T16:13:13.375Z,16.30
2023-05-09T16:16:07.845Z,16.30
2023-05-09T16:19:03.644Z,16.30
2023-05-09T16:21:58.090Z,16.30
2023-05-09T16:24:52.269Z,16.30
2023-05-09T16:27:46.606Z,16.30
2023-05-09T16:30:40.804Z,16.30
2023-05-09T16:33:35.201Z,16.30
2023-05-09T16:36:31.110Z,16.30
2023-05-09T16:39:25.283Z,16.30
2023-05-09T16:42:19.428Z,16.30
2023-05-09T16:45:13.667Z,16.30
2023-05-09T16:48:08.303Z,16.30
2023-05-09T16:51:02.404Z,16.30
2023-05-09T16:53:56.615Z,16.30
2023-05-09T16:56:50.815Z,16.30
2023-05-09T16:59:45.000Z,16.30
2023-05-09T17:02:39.409Z,16.30
2023-05-09T17:05:33.650Z,16.30
2023-05-09T17:08:27.751Z,16.30
2023-05-09T17:11:22.885Z,16.30
2023-05-09T17:14:17.200Z,16.30
2023-05-09T17:17:11.578Z,16.30
2023-05-09T17:20:05.938Z,16.30
2023-05-09T17:23:00.135Z,16.30
2023-05-09T17:25:54.377Z,16.30
2023-05-09T17:28:49.126Z,16.30
2023-05-09T17:31:43.499Z,16.30
2023-05-09T17:34:39.193Z,16.30
2023-05-09T17:37:33.297Z,16.30
2023-05-09T17:40:27.589Z,16.40
2023-05-09T17:43:22.964Z,16.40
2023-05-09T17:46:17.241Z,16.40
2023-05-09T17:49:12.473Z,16.40
2023-05-09T17:52:06.754Z,16.40
2023-05-09T17:55:02.153Z,16.40
2023-05-09T17:57:56.335Z,16.40
2023-05-09T18:00:50.468Z,16.40
2023-05-09T18:03:44.718Z,16.40
2023-05-09T18:06:39.301Z,16.40
2023-05-09T18:09:33.525Z,16.40
2023-05-09T18:12:30.132Z,16.40
2023-05-09T18:15:24.402Z,16.40
2023-05-09T18:18:18.707Z,16.40
2023-05-09T18:21:13.257Z,16.40
2023-05-09T18:24:10.258Z,16.30
2023-05-09T18:27:07.210Z,16.30
2023-05-09T18:30:01.347Z,16.30
2023-05-09T18:32:55.849Z,16.30
2023-05-09T18:35:50.061Z,16.30
2023-05-09T18:38:44.819Z,16.20
2023-05-09T18:41:38.977Z,16.20
2023-05-09T18:44:33.878Z,16.20
2023-05-09T18:47:28.802Z,16.20
2023-05-09T18:50:22.987Z,16.10
2023-05-09T18:53:17.139Z,16.00
2023-05-09T18:56:11.683Z,16.00
2023-05-09T18:59:06.252Z,16.00
2023-05-09T19:02:00.423Z,15.90
2023-05-09T19:04:54.701Z,15.90
2023-05-09T19:07:49.035Z,15.80
2023-05-09T19:10:43.643Z,15.80
2023-05-09T19:13:39.597Z,15.80
2023-05-09T19:16:33.909Z,15.70
2023-05-09T19:19:28.784Z,15.60
2023-05-09T19:22:22.901Z,15.60
2023-05-09T19:25:17.522Z,15.50
2023-05-09T19:28:13.200Z,15.50
2023-05-09T19:31:07.404Z,15.40
2023-05-09T19:34:01.922Z,15.40
2023-05-09T19:36:56.536Z,15.30
2023-05-09T19:39:52.962Z,15.30
2023-05-09T19:42:47.374Z,15.20
2023-05-09T19:45:41.769Z,15.20
2023-05-09T19:48:37.076Z,15.20
2023-05-09T19:51:31.229Z,15.10
2023-05-09T19:54:28.613Z,15.10
2023-05-09T19:57:22.832Z,15.00
2023-05-09T20:00:17.709Z,15.00
2023-05-09T20:03:12.167Z,14.90
2023-05-09T20:06:07.119Z,14.90
2023-05-09T20:09:01.254Z,14.90
2023-05-09T20:11:55.439Z,14.80
2023-05-09T20:14:49.619Z,14.70
2023-05-09T20:17:43.961Z,14.60
2023-05-09T20:20:38.445Z,14.50
2023-05-09T20:23:32.720Z,14.40
2023-05-09T20:26:27.519Z,14.40
2023-05-09T20:29:21.864Z,14.40
2023-05-09T20:32:16.073Z,14.40
2023-05-09T20:35:10.694Z,14.50
2023-05-09T20:38:05.757Z,14.40
2023-05-09T20:40:59.902Z,14.50
2023-05-09T20:43:54.184Z,14.50
2023-05-09T20:46:48.952Z,14.50
2023-05-09T20:49:43.169Z,14.50
2023-05-09T20:52:37.469Z,14.50
2023-05-09T20:55:31.668Z,14.50
2023-05-09T20:58:25.784Z,14.50
2023-05-09T21:01:20.247Z,14.40
2023-05-09T21:04:14.378Z,14.40
2023-05-09T21:07:08.557Z,14.40
2023-05-09T21:10:03.161Z,14.40
2023-05-09T21:12:57.452Z,14.30
2023-05-09T21:15:55.068Z,14.30
2023-05-09T21:18:49.189Z,14.30
2023-05-09T21:21:43.453Z,14.30
2023-05-09T21:24:37.582Z,14.30
2023-05-09T21:27:35.038Z,14.30
2023-05-09T21:30:29.186Z,14.30
2023-05-09T21:33:23.500Z,14.30
2023-05-09T21:36:17.611Z,14.30
2023-05-09T21:39:12.872Z,14.30
2023-05-09T21:42:07.051Z,14.20
2023-05-09T21:45:01.264Z,14.20
2023-05-09T21:47:55.497Z,14.20
2023-05-09T21:50:49.688Z,14.20
2023-05-09T21:53:43.846Z,14.20
2023-05-09T21:56:38.100Z,14.20
2023-05-09T21:59:32.289Z,14.10
2023-05-09T22:02:26.503Z,14.20
2023-05-09T22:05:20.718Z,14.10
2023-05-09T22:08:14.888Z,14.10
2023-05-09T22:11:09.079Z,14.10
2023-05-09T22:14:03.588Z,14.10
2023-05-09T22:16:57.712Z,14.10
2023-05-09T22:19:51.904Z,14.10
2023-05-09T22:22:46.036Z,14.10
2023-05-09T22:25:40.194Z,14.10
2023-05-09T22:28:34.423Z,14.10
2023-05-09T22:31:28.708Z,14.10
2023-05-09T22:34:23.754Z,14.10
2023-05-09T22:37:18.042Z,14.10
2023-05-09T22:40:12.710Z,14.20
2023-05-09T22:43:07.149Z,14.20
2023-05-09T22:46:01.612Z,14.20
2023-05-09T22:48:55.940Z,14.20
2023-05-09T22:51:50.101Z,14.20
2023-05-09T22:54:44.309Z,14.30
2023-05-09T22:57:38.559Z,14.30
2023-05-09T23:00:32.934Z,14.30
2023-05-09T23:03:27.503Z,14.40
2023-05-09T23:06:21.877Z,14.40
2023-05-09T23:09:16.287Z,14.50
2023-05-09T23:12:13.132Z,14.50
2023-05-09T23:15:08.733Z,14.50
2023-05-09T23:18:03.050Z,14.60
2023-05-09T23:20:57.416Z,14.70
2023-05-09T23:23:51.596Z,14.80
2023-05-09T23:26:45.782Z,15.30
2023-05-09T23:29:39.921Z,16.00
2023-05-09T23:32:34.194Z,16.10
2023-05-09T23:35:28.727Z,16.20
2023-05-09T23:38:23.725Z,16.20
2023-05-09T23:41:17.954Z,16.10
2023-05-09T23:44:13.974Z,16.20
2023-05-09T23:47:08.367Z,16.10
2023-05-09T23:50:02.572Z,16.20
2023-05-09T23:52:56.981Z,16.20
2023-05-09T23:55:51.199Z,16.20
2023-05-09T23:58:45.450Z,16.30
